Time;durP1;ratioP1;P1;durP2;ratioP2;P2;SDS_P1;SDS_P2;PMS_P1;PMS_P2;Temp;Humidity;BMP_temperature;BMP_pressure;BME280_temperature;BME280_humidity;BME280_pressure;Samples;Min_cycle;Max_cycle;Signal;HPM_P1;HPM_P2
2023/09/17 00:01:23;;;;;;;6.63;5.97;;;22.20;99.90;;;;;;5009055;28;20663;-88
2023/09/17 00:03:49;;;;;;;5.55;5.05;;;22.10;99.90;;;;;;5004507;28;20282;-88
2023/09/17 00:06:15;;;;;;;5.97;5.47;;;21.70;99.90;;;;;;5004753;28;20246;-88
2023/09/17 00:08:40;;;;;;;6.00;5.40;;;21.50;99.90;;;;;;5005725;28;20505;-88
2023/09/17 00:11:07;;;;;;;5.47;5.07;;;21.50;99.90;;;;;;5009549;28;20215;-88
2023/09/17 00:13:32;;;;;;;6.25;5.47;;;21.40;99.90;;;;;;5017364;28;20217;-87
2023/09/17 00:15:59;;;;;;;6.60;6.00;;;21.70;99.90;;;;;;5022778;28;20198;-88
2023/09/17 00:18:25;;;;;;;5.35;4.93;;;21.50;99.90;;;;;;5005158;28;20196;-88
2023/09/17 00:20:51;;;;;;;5.73;5.23;;;22.20;99.90;;;;;;5010592;28;20183;-88
2023/09/17 00:23:16;;;;;;;5.90;5.40;;;21.40;99.90;;;;;;5011366;28;20214;-88
2023/09/17 00:25:42;;;;;;;6.17;5.17;;;21.30;99.90;;;;;;5018810;28;20213;-88
2023/09/17 00:28:09;;;;;;;5.47;4.97;;;21.70;99.90;;;;;;5009349;28;20186;-88
2023/09/17 00:30:34;;;;;;;6.10;5.60;;;21.60;99.90;;;;;;5019951;28;20207;-88
2023/09/17 00:33:00;;;;;;;6.00;5.50;;;22.00;99.90;;;;;;5022284;28;20293;-88
2023/09/17 00:35:25;;;;;;;5.60;5.10;;;21.40;99.90;;;;;;5025135;28;20207;-88
2023/09/17 00:37:52;;;;;;;5.97;5.37;;;21.20;99.90;;;;;;5026306;28;20528;-88
2023/09/17 00:40:20;;;;;;;5.60;5.15;;;21.00;99.90;;;;;;5009373;28;20203;-88
2023/09/17 00:42:45;;;;;;;5.50;5.10;;;20.90;99.90;;;;;;5010869;28;20313;-88
2023/09/17 00:45:12;;;;;;;5.80;5.30;;;21.10;99.90;;;;;;5010557;28;20722;-88
2023/09/17 00:47:38;;;;;;;6.57;6.03;;;21.40;99.90;;;;;;5009031;28;20194;-88
2023/09/17 00:50:04;;;;;;;5.20;4.90;;;20.70;99.90;;;;;;5010981;28;20229;-87
2023/09/17 00:52:33;;;;;;;5.35;4.88;;;20.70;99.90;;;;;;5009716;28;20229;-88
2023/09/17 00:54:59;;;;;;;5.95;5.10;;;20.70;99.90;;;;;;5020534;28;20186;-88
2023/09/17 00:57:25;;;;;;;5.82;5.32;;;21.10;99.90;;;;;;5031565;28;20183;-88
2023/09/17 00:59:50;;;;;;;5.83;5.33;;;21.00;99.90;;;;;;5035878;28;20282;-88
2023/09/17 01:02:19;;;;;;;5.60;5.10;;;20.70;99.90;;;;;;5035314;28;20222;-88
2023/09/17 01:04:49;;;;;;;6.20;5.70;;;20.60;99.90;;;;;;5041083;28;20167;-88
2023/09/17 01:07:19;;;;;;;5.70;5.30;;;20.70;99.90;;;;;;5026817;28;20195;-87
2023/09/17 01:09:45;;;;;;;6.63;5.75;;;20.80;99.90;;;;;;5005040;28;20282;-87
2023/09/17 01:12:12;;;;;;;6.20;5.30;;;20.70;99.90;;;;;;5008497;28;20633;-88
2023/09/17 01:14:37;;;;;;;5.10;4.60;;;20.70;99.90;;;;;;5013280;28;20183;-88
2023/09/17 01:17:08;;;;;;;5.37;4.87;;;20.60;99.90;;;;;;5002904;28;20187;-88
2023/09/17 01:19:34;;;;;;;6.03;5.55;;;20.70;99.90;;;;;;5005516;28;20442;-88
2023/09/17 01:22:06;;;;;;;5.25;4.53;;;21.40;99.90;;;;;;5016425;28;20228;-88
2023/09/17 01:24:43;;;;;;;5.55;5.05;;;20.40;99.90;;;;;;5027506;28;20676;-88
2023/09/17 01:27:11;;;;;;;5.80;5.20;;;20.50;99.90;;;;;;5032202;28;20296;-88
2023/09/17 01:29:39;;;;;;;5.72;5.20;;;20.70;99.90;;;;;;5012500;28;20674;-88
2023/09/17 01:32:11;;;;;;;5.60;5.07;;;20.80;99.90;;;;;;5013064;28;20551;-88
2023/09/17 01:34:41;;;;;;;5.38;4.97;;;20.70;99.90;;;;;;5005772;28;20233;-88
2023/09/17 01:37:23;;;;;;;5.38;4.97;;;20.80;99.90;;;;;;5006606;28;20187;-88
2023/09/17 01:40:10;;;;;;;5.05;4.65;;;20.90;99.90;;;;;;5014395;28;20237;-88
2023/09/17 01:42:38;;;;;;;5.88;5.38;;;20.50;99.90;;;;;;5005736;28;20209;-88
2023/09/17 01:45:06;;;;;;;5.13;4.82;;;20.70;99.90;;;;;;5012723;28;20683;-88
2023/09/17 01:47:33;;;;;;;5.90;5.28;;;20.40;99.90;;;;;;4995325;28;20194;-88
2023/09/17 01:50:00;;;;;;;5.20;4.80;;;21.00;99.90;;;;;;5009647;28;20614;-88
2023/09/17 01:52:26;;;;;;;5.78;5.32;;;20.70;99.90;;;;;;5008154;28;20212;-88
2023/09/17 01:54:53;;;;;;;5.20;4.70;;;20.80;99.90;;;;;;5009327;28;20217;-88
2023/09/17 01:57:18;;;;;;;5.20;4.80;;;20.50;99.90;;;;;;5004004;28;20446;-82
2023/09/17 01:59:44;;;;;;;5.13;4.60;;;20.80;99.90;;;;;;5011048;28;20241;-83
2023/09/17 02:02:10;;;;;;;5.53;5.03;;;20.60;99.90;;;;;;5007987;28;20206;-82
2023/09/17 02:04:35;;;;;;;5.20;4.70;;;20.20;99.90;;;;;;5013718;28;20465;-82
2023/09/17 02:07:02;;;;;;;5.73;5.23;;;20.30;99.90;;;;;;5014537;28;20318;-82
2023/09/17 02:09:27;;;;;;;5.13;4.72;;;20.40;99.90;;;;;;5013723;28;20190;-82
2023/09/17 02:11:53;;;;;;;6.37;5.80;;;20.80;99.90;;;;;;5028974;28;20215;-82
2023/09/17 02:14:18;;;;;;;5.50;5.10;;;20.70;99.90;;;;;;5014489;28;20187;-81
2023/09/17 02:16:44;;;;;;;5.23;4.83;;;20.40;99.90;;;;;;5014908;28;20182;-82
2023/09/17 02:19:09;;;;;;;5.50;5.10;;;20.80;99.90;;;;;;5013027;28;21102;-82
2023/09/17 02:21:35;;;;;;;5.63;5.13;;;20.60;99.90;;;;;;5006545;28;20194;-82
2023/09/17 02:24:01;;;;;;;5.97;5.20;;;20.50;99.90;;;;;;5013000;28;20191;-82
2023/09/17 02:26:27;;;;;;;6.37;5.10;;;20.40;99.90;;;;;;5021813;28;20213;-83
2023/09/17 02:28:52;;;;;;;5.30;4.80;;;20.10;99.90;;;;;;5026121;28;20462;-82
2023/09/17 02:31:18;;;;;;;6.50;5.90;;;20.40;99.90;;;;;;5040858;23;20328;-81
2023/09/17 02:33:43;;;;;;;5.50;5.00;;;20.00;99.90;;;;;;5033723;28;20241;-80
2023/09/17 02:36:09;;;;;;;5.87;5.30;;;20.20;99.90;;;;;;5034213;28;20194;-79
2023/09/17 02:38:34;;;;;;;5.20;4.70;;;20.30;99.90;;;;;;5034939;28;20602;-80
2023/09/17 02:41:00;;;;;;;5.30;4.80;;;20.00;99.90;;;;;;5037014;28;20705;-80
2023/09/17 02:43:29;;;;;;;5.90;5.47;;;20.60;99.90;;;;;;5039683;28;20214;-81
2023/09/17 02:45:55;;;;;;;6.68;5.60;;;20.30;99.90;;;;;;5041026;28;20472;-80
2023/09/17 02:48:21;;;;;;;6.15;5.65;;;20.20;99.90;;;;;;5038716;28;20183;-81
2023/09/17 02:50:47;;;;;;;8.30;5.57;;;19.90;99.90;;;;;;5033354;28;20190;-81
2023/09/17 02:53:12;;;;;;;6.10;5.60;;;20.20;99.90;;;;;;5035652;28;20217;-80
2023/09/17 02:55:38;;;;;;;5.77;5.27;;;19.40;99.90;;;;;;5034361;28;20182;-80
2023/09/17 02:58:04;;;;;;;6.17;5.57;;;20.00;99.90;;;;;;5036262;28;20212;-80
2023/09/17 03:00:33;;;;;;;5.80;5.40;;;19.80;99.90;;;;;;5034231;28;20440;-80
2023/09/17 03:02:59;;;;;;;4.45;4.15;;;20.40;99.90;;;;;;5041765;28;20206;-80
2023/09/17 03:05:24;;;;;;;5.80;5.30;;;20.00;99.90;;;;;;5048820;28;20397;-79
2023/09/17 03:07:50;;;;;;;7.60;5.60;;;19.90;99.90;;;;;;5035813;28;20213;-80
2023/09/17 03:10:18;;;;;;;5.90;5.40;;;20.00;99.90;;;;;;5037167;28;20185;-80
2023/09/17 03:12:46;;;;;;;5.68;5.10;;;19.50;99.90;;;;;;5033976;28;20464;-80
2023/09/17 03:15:11;;;;;;;5.72;5.32;;;19.90;99.90;;;;;;5028861;28;20178;-76
2023/09/17 03:17:37;;;;;;;6.83;5.53;;;19.80;99.90;;;;;;5025995;28;20179;-79
2023/09/17 03:20:13;;;;;;;5.80;5.30;;;19.40;99.90;;;;;;5031233;28;20432;-77
2023/09/17 03:22:40;;;;;;;6.10;5.50;;;19.50;99.90;;;;;;5029555;28;20452;-78
2023/09/17 03:25:06;;;;;;;6.78;6.05;;;19.90;99.90;;;;;;5029028;28;20186;-78
2023/09/17 03:27:35;;;;;;;6.10;5.50;;;19.50;99.90;;;;;;5032991;28;20190;-79
2023/09/17 03:30:03;;;;;;;6.53;5.93;;;19.40;99.90;;;;;;5041167;28;20186;-80
2023/09/17 03:32:29;;;;;;;6.85;5.30;;;19.80;99.90;;;;;;5044686;28;20222;-79
2023/09/17 03:34:55;;;;;;;6.37;5.77;;;19.60;99.90;;;;;;5036244;28;20254;-80
2023/09/17 03:37:21;;;;;;;6.40;5.90;;;19.70;99.90;;;;;;5035786;28;20999;-80
2023/09/17 03:40:06;;;;;;;7.30;5.93;;;19.40;99.90;;;;;;5032415;28;20492;-80
2023/09/17 03:42:31;;;;;;;5.50;5.10;;;19.70;99.90;;;;;;5031244;28;20209;-80
2023/09/17 03:44:57;;;;;;;6.27;5.77;;;19.40;99.90;;;;;;5033486;28;20191;-80
2023/09/17 03:47:22;;;;;;;5.83;5.30;;;19.80;99.90;;;;;;5032834;28;20182;-80
2023/09/17 03:49:48;;;;;;;6.00;5.40;;;19.70;99.90;;;;;;5035661;28;20237;-80
2023/09/17 03:52:13;;;;;;;6.30;5.80;;;19.50;99.90;;;;;;5036138;28;20202;-80
2023/09/17 03:54:39;;;;;;;6.37;5.87;;;19.20;99.90;;;;;;5028366;28;20230;-80
2023/09/17 03:57:04;;;;;;;5.93;5.43;;;19.70;99.90;;;;;;5048283;28;20257;-80
2023/09/17 03:59:30;;;;;;;6.80;6.10;;;19.60;99.90;;;;;;5036642;28;20193;-79
2023/09/17 04:01:56;;;;;;;6.50;5.93;;;19.10;99.90;;;;;;5035324;28;20194;-80
2023/09/17 04:04:21;;;;;;;6.40;5.80;;;19.60;99.90;;;;;;5034780;28;20178;-80
2023/09/17 04:06:47;;;;;;;6.87;6.27;;;19.40;99.90;;;;;;5038724;28;20241;-80
2023/09/17 04:09:13;;;;;;;6.40;5.90;;;19.50;99.90;;;;;;5042713;28;20249;-79
2023/09/17 04:11:39;;;;;;;6.68;6.07;;;19.20;99.90;;;;;;5044558;28;20190;-80
2023/09/17 04:14:06;;;;;;;6.73;6.23;;;19.60;99.90;;;;;;5035818;28;20269;-80
2023/09/17 04:16:32;;;;;;;6.25;5.70;;;19.70;99.90;;;;;;5038094;28;20190;-79
2023/09/17 04:18:57;;;;;;;6.73;6.13;;;19.70;99.90;;;;;;5037137;28;20194;-79
2023/09/17 04:21:23;;;;;;;6.30;5.70;;;19.50;99.90;;;;;;5041240;28;20222;-80
2023/09/17 04:23:48;;;;;;;6.33;5.83;;;19.30;99.90;;;;;;5045789;28;20178;-80
2023/09/17 04:26:15;;;;;;;7.00;6.40;;;19.50;99.90;;;;;;5048477;28;20206;-80
2023/09/17 04:28:41;;;;;;;6.53;6.03;;;19.90;99.90;;;;;;5031689;28;20205;-80
2023/09/17 04:31:06;;;;;;;6.37;5.87;;;19.50;99.90;;;;;;5037522;28;20187;-80
2023/09/17 04:33:32;;;;;;;6.40;5.90;;;19.40;99.90;;;;;;5035940;28;20202;-80
2023/09/17 04:35:58;;;;;;;6.30;5.80;;;19.50;99.90;;;;;;5037194;28;20217;-80
2023/09/17 04:38:24;;;;;;;6.97;6.30;;;19.60;99.90;;;;;;5034558;28;20214;-80
2023/09/17 04:40:50;;;;;;;7.07;6.47;;;19.40;99.90;;;;;;5036307;28;20178;-80
2023/09/17 04:43:16;;;;;;;6.80;6.27;;;19.40;99.90;;;;;;5037082;28;20209;-80
2023/09/17 04:45:42;;;;;;;7.25;6.70;;;19.40;99.90;;;;;;5036017;28;20201;-80
2023/09/17 04:48:09;;;;;;;7.53;6.93;;;19.40;99.90;;;;;;5035314;28;20683;-80
2023/09/17 04:50:34;;;;;;;7.78;7.07;;;19.40;99.90;;;;;;5035256;28;20256;-80
2023/09/17 04:53:00;;;;;;;7.13;6.60;;;19.10;99.90;;;;;;5034335;28;20615;-80
2023/09/17 04:55:26;;;;;;;7.00;6.40;;;19.50;99.90;;;;;;5036661;28;20184;-80
2023/09/17 04:57:52;;;;;;;7.30;6.70;;;19.00;99.90;;;;;;5034640;28;20204;-80
2023/09/17 05:00:20;;;;;;;8.03;7.30;;;19.40;99.90;;;;;;5032920;28;20442;-80
2023/09/17 05:02:46;;;;;;;7.18;6.57;;;19.00;99.90;;;;;;5034915;28;20465;-80
2023/09/17 05:05:12;;;;;;;6.43;5.93;;;18.90;99.90;;;;;;5037216;28;20182;-80
2023/09/17 05:07:39;;;;;;;8.60;7.25;;;19.20;99.90;;;;;;5037020;28;20568;-80
2023/09/17 05:10:06;;;;;;;7.43;6.80;;;19.30;99.90;;;;;;5033855;28;20324;-80
2023/09/17 05:12:31;;;;;;;7.22;6.63;;;19.00;99.90;;;;;;5034959;28;20194;-80
2023/09/17 05:14:57;;;;;;;7.67;6.97;;;19.50;99.90;;;;;;5039919;28;20305;-80
2023/09/17 05:17:22;;;;;;;6.83;6.27;;;19.30;99.90;;;;;;5034962;28;20190;-80
2023/09/17 05:19:48;;;;;;;7.43;6.83;;;19.40;99.90;;;;;;5032597;28;20182;-80
2023/09/17 05:22:14;;;;;;;7.70;7.10;;;19.50;99.90;;;;;;5032844;28;20216;-80
2023/09/17 05:24:39;;;;;;;7.30;6.70;;;19.30;99.90;;;;;;5038666;28;20182;-80
2023/09/17 05:27:05;;;;;;;7.73;7.07;;;19.50;99.90;;;;;;5035454;28;20202;-80
2023/09/17 05:29:30;;;;;;;7.30;6.60;;;19.40;99.90;;;;;;5033775;28;20186;-79
2023/09/17 05:31:56;;;;;;;7.70;7.10;;;19.50;99.90;;;;;;5034361;28;20271;-80
2023/09/17 05:34:22;;;;;;;6.93;6.33;;;19.40;99.90;;;;;;5036638;28;20186;-80
2023/09/17 05:36:48;;;;;;;7.10;6.53;;;19.10;99.90;;;;;;5035612;28;20189;-80
2023/09/17 05:39:13;;;;;;;7.17;6.47;;;19.30;99.90;;;;;;5037816;28;20178;-80
2023/09/17 05:41:39;;;;;;;7.23;6.63;;;19.10;99.90;;;;;;5048901;28;20194;-80
2023/09/17 05:44:05;;;;;;;7.20;6.60;;;18.90;99.90;;;;;;5044205;28;20413;-80
2023/09/17 05:46:34;;;;;;;7.10;6.40;;;19.10;99.90;;;;;;5036596;28;20232;-80
2023/09/17 05:48:59;;;;;;;7.60;6.90;;;19.20;99.90;;;;;;5035666;28;20466;-80
2023/09/17 05:51:25;;;;;;;7.10;6.57;;;19.30;99.90;;;;;;5035637;28;20185;-80
2023/09/17 05:53:50;;;;;;;7.60;6.90;;;19.60;99.90;;;;;;5034385;28;20725;-79
2023/09/17 05:56:16;;;;;;;7.73;7.10;;;19.30;99.90;;;;;;5034055;28;20277;-79
2023/09/17 05:58:41;;;;;;;7.10;6.43;;;19.80;99.90;;;;;;5033826;28;20182;-80
2023/09/17 06:01:07;;;;;;;7.20;6.60;;;19.70;99.90;;;;;;5036042;28;20194;-80
2023/09/17 06:03:32;;;;;;;7.30;6.67;;;19.80;99.90;;;;;;5033522;28;20800;-79
2023/09/17 06:05:58;;;;;;;6.97;6.40;;;19.80;99.90;;;;;;5032425;28;20210;-79
2023/09/17 06:08:28;;;;;;;6.97;6.37;;;20.10;99.90;;;;;;5041570;28;20238;-80
2023/09/17 06:10:54;;;;;;;6.85;6.35;;;20.10;99.90;;;;;;5033839;28;20202;-80
2023/09/17 06:13:19;;;;;;;7.22;6.55;;;19.90;99.90;;;;;;5028508;28;20300;-80
2023/09/17 06:15:45;;;;;;;6.43;5.93;;;19.90;99.90;;;;;;5034611;28;20194;-80
2023/09/17 06:18:11;;;;;;;6.90;6.30;;;20.30;99.90;;;;;;5034302;28;20285;-80
2023/09/17 06:20:37;;;;;;;6.93;6.33;;;20.30;99.90;;;;;;5030709;28;20277;-80
2023/09/17 06:23:03;;;;;;;7.10;5.93;;;20.10;99.90;;;;;;5031743;28;20202;-80
2023/09/17 06:25:28;;;;;;;7.47;6.80;;;20.20;99.90;;;;;;5034218;28;20218;-81
2023/09/17 06:27:54;;;;;;;7.20;6.60;;;20.60;99.90;;;;;;5033384;28;20232;-81
2023/09/17 06:30:20;;;;;;;6.33;5.83;;;20.30;99.90;;;;;;5031315;28;20182;-86
2023/09/17 06:32:45;;;;;;;6.10;5.60;;;20.60;99.90;;;;;;5028019;28;20571;-84
2023/09/17 06:35:11;;;;;;;7.50;6.90;;;20.70;99.90;;;;;;5033765;28;20186;-84
2023/09/17 06:37:37;;;;;;;9.10;8.30;;;20.70;99.90;;;;;;5037060;28;20185;-84
2023/09/17 06:40:03;;;;;;;6.93;6.23;;;20.90;99.90;;;;;;5037183;28;20193;-84
2023/09/17 06:42:29;;;;;;;7.80;6.20;;;21.10;99.90;;;;;;5032699;28;20206;-84
2023/09/17 06:44:54;;;;;;;6.80;6.20;;;21.20;99.90;;;;;;5034577;28;20263;-84
2023/09/17 06:47:20;;;;;;;6.70;6.20;;;21.80;99.90;;;;;;5032677;28;20711;-84
2023/09/17 06:49:46;;;;;;;6.30;5.80;;;21.60;99.90;;;;;;5031222;28;20178;-84
2023/09/17 06:52:11;;;;;;;7.37;6.10;;;22.30;99.90;;;;;;5030796;28;20617;-82
2023/09/17 06:54:37;;;;;;;7.97;7.17;;;22.30;99.90;;;;;;5030159;28;20269;-83
2023/09/17 06:57:02;;;;;;;7.13;6.53;;;23.20;99.90;;;;;;5029385;28;20270;-83
2023/09/17 06:59:28;;;;;;;6.87;6.13;;;24.00;99.90;;;;;;5033725;28;20215;-83
2023/09/17 07:01:54;;;;;;;5.70;5.20;;;25.20;99.90;;;;;;5030114;28;20772;-83
2023/09/17 07:04:19;;;;;;;6.50;5.90;;;26.80;99.80;;;;;;5029792;28;20186;-83
2023/09/17 07:06:45;;;;;;;6.83;6.23;;;29.10;95.60;;;;;;5029329;28;20207;-84
2023/09/17 07:09:10;;;;;;;6.60;6.10;;;29.40;92.20;;;;;;5025966;28;20212;-84
2023/09/17 07:11:36;;;;;;;6.67;6.10;;;30.50;90.90;;;;;;5028524;28;20194;-85
2023/09/17 07:14:09;;;;;;;6.83;5.60;;;31.60;89.30;;;;;;5031121;28;20349;-84
2023/09/17 07:16:35;;;;;;;16.17;14.97;;;31.40;86.00;;;;;;5029847;28;20189;-84
2023/09/17 07:19:01;;;;;;;11.30;10.40;;;32.00;84.20;;;;;;5028636;28;20448;-85
2023/09/17 07:21:27;;;;;;;7.87;7.37;;;32.00;81.90;;;;;;5029368;28;21290;-85
2023/09/17 07:23:52;;;;;;;6.10;5.60;;;31.90;82.00;;;;;;5029782;28;20188;-84
2023/09/17 07:26:20;;;;;;;5.80;5.40;;;32.00;80.80;;;;;;5028726;28;20299;-84
2023/09/17 07:28:46;;;;;;;5.83;5.33;;;32.40;79.70;;;;;;5034434;28;20192;-84
2023/09/17 07:31:12;;;;;;;6.00;5.60;;;32.60;78.40;;;;;;5032946;28;20483;-85
2023/09/17 07:33:39;;;;;;;5.90;5.40;;;33.30;77.20;;;;;;5027545;28;20493;-84
2023/09/17 07:36:05;;;;;;;8.00;5.40;;;33.20;75.50;;;;;;5025878;28;20867;-85
2023/09/17 07:38:32;;;;;;;10.47;9.67;;;34.30;71.30;;;;;;5027337;28;20447;-85
2023/09/17 07:40:57;;;;;;;6.10;5.53;;;35.20;67.40;;;;;;5030493;28;20451;-83
2023/09/17 07:43:23;;;;;;;5.47;4.97;;;34.80;65.40;;;;;;5029294;28;20465;-84
2023/09/17 07:45:48;;;;;;;5.40;5.00;;;34.80;65.70;;;;;;5029227;28;20210;-84
2023/09/17 07:48:14;;;;;;;29.37;6.43;;;35.10;64.00;;;;;;5030558;28;20186;-84
2023/09/17 07:50:40;;;;;;;5.93;5.53;;;34.80;64.30;;;;;;5027389;28;20205;-84
2023/09/17 07:53:07;;;;;;;4.97;4.57;;;34.40;64.80;;;;;;5026715;28;20214;-84
2023/09/17 07:55:32;;;;;;;4.70;4.30;;;34.70;66.40;;;;;;5028640;28;20448;-84
2023/09/17 07:57:58;;;;;;;5.17;4.77;;;33.00;66.40;;;;;;5027851;28;20449;-84
2023/09/17 08:00:24;;;;;;;5.30;4.80;;;33.30;66.30;;;;;;5028750;28;20183;-84
2023/09/17 08:02:50;;;;;;;5.93;4.23;;;33.80;65.80;;;;;;5033490;28;20212;-85
2023/09/17 08:05:17;;;;;;;5.53;5.00;;;33.90;64.00;;;;;;5030814;28;20441;-84
2023/09/17 08:07:43;;;;;;;6.10;5.60;;;34.30;64.40;;;;;;5038052;28;20441;-85
2023/09/17 08:10:09;;;;;;;5.53;5.10;;;35.40;61.70;;;;;;5038835;28;20519;-84
2023/09/17 08:12:35;;;;;;;5.17;4.77;;;35.40;60.30;;;;;;5027502;28;20552;-84
2023/09/17 08:15:01;;;;;;;4.83;4.10;;;36.00;58.90;;;;;;5028083;28;20523;-84
2023/09/17 08:17:27;;;;;;;7.13;4.57;;;37.00;57.80;;;;;;5027215;28;20440;-84
2023/09/17 08:19:52;;;;;;;6.20;4.73;;;37.60;55.60;;;;;;5025993;28;20224;-84
2023/09/17 08:22:18;;;;;;;5.60;5.10;;;37.50;53.80;;;;;;5041418;28;20206;-84
2023/09/17 08:24:43;;;;;;;4.80;4.37;;;38.50;52.80;;;;;;5044002;28;20186;-84
2023/09/17 08:27:10;;;;;;;4.43;4.03;;;39.00;51.30;;;;;;5041318;28;20218;-84
2023/09/17 08:29:35;;;;;;;4.87;4.40;;;38.70;50.50;;;;;;5042206;28;20186;-84
2023/09/17 08:32:01;;;;;;;4.27;3.93;;;37.00;52.10;;;;;;5031663;28;20478;-82
2023/09/17 08:34:26;;;;;;;4.10;3.80;;;35.50;53.90;;;;;;5035545;28;20233;-83
2023/09/17 08:36:53;;;;;;;4.27;3.97;;;34.70;55.80;;;;;;5034735;28;20255;-82
2023/09/17 08:39:19;;;;;;;6.10;4.20;;;33.70;57.50;;;;;;5034485;28;20280;-81
2023/09/17 08:41:47;;;;;;;4.47;4.10;;;32.90;59.50;;;;;;5037793;28;20467;-80
2023/09/17 08:44:14;;;;;;;4.17;3.70;;;32.40;61.30;;;;;;5031895;28;20532;-82
2023/09/17 08:46:42;;;;;;;3.87;3.57;;;31.90;62.40;;;;;;5035629;28;20453;-81
2023/09/17 08:49:07;;;;;;;3.70;3.40;;;31.50;64.50;;;;;;5039152;28;20447;-81
2023/09/17 08:51:37;;;;;;;5.13;3.70;;;30.60;67.20;;;;;;5039273;28;20528;-81
2023/09/17 08:54:33;;;;;;;4.90;3.50;;;30.40;68.00;;;;;;5038625;28;20182;-81
2023/09/17 08:57:02;;;;;;;5.03;3.73;;;30.80;69.60;;;;;;5037507;28;20968;-81
2023/09/17 08:59:33;;;;;;;4.30;3.90;;;29.80;69.40;;;;;;5037819;28;20451;-81
2023/09/17 09:02:03;;;;;;;6.40;5.03;;;30.20;71.80;;;;;;5054018;28;20494;-81
2023/09/17 09:04:30;;;;;;;3.77;3.47;;;29.40;73.30;;;;;;5036006;28;20443;-81
2023/09/17 09:06:56;;;;;;;3.50;3.20;;;29.10;74.00;;;;;;5038325;28;20471;-81
2023/09/17 09:09:23;;;;;;;3.93;3.53;;;29.00;74.10;;;;;;5035171;28;20468;-81
2023/09/17 09:11:49;;;;;;;4.00;3.63;;;28.80;74.60;;;;;;5036712;28;20212;-81
2023/09/17 09:14:15;;;;;;;6.60;4.10;;;29.00;75.30;;;;;;5039927;28;20509;-82
2023/09/17 09:16:41;;;;;;;5.47;4.00;;;29.00;75.70;;;;;;5036059;28;20478;-81
2023/09/17 09:19:07;;;;;;;3.57;3.27;;;29.30;76.00;;;;;;5036661;28;20461;-82
2023/09/17 09:21:33;;;;;;;8.43;3.83;;;30.10;76.40;;;;;;5033985;28;20603;-82
2023/09/17 09:23:59;;;;;;;2.90;2.70;;;29.10;74.50;;;;;;5037586;28;20450;-82
2023/09/17 09:26:35;;;;;;;5.30;3.10;;;29.20;73.70;;;;;;5040039;28;20217;-82
2023/09/17 09:29:01;;;;;;;3.90;3.50;;;29.30;73.70;;;;;;5052792;28;20207;-81
2023/09/17 09:31:29;;;;;;;7.07;3.40;;;29.10;73.20;;;;;;5035140;28;20451;-81
2023/09/17 09:33:56;;;;;;;5.10;3.10;;;29.40;72.80;;;;;;5035552;28;20455;-81
2023/09/17 09:36:22;;;;;;;5.10;3.60;;;29.10;72.70;;;;;;5035960;28;20682;-83
2023/09/17 09:38:49;;;;;;;2.93;2.73;;;29.30;73.20;;;;;;5033075;28;20445;-83
2023/09/17 09:41:15;;;;;;;4.20;3.13;;;29.60;73.00;;;;;;5030774;28;21210;-83
2023/09/17 09:43:42;;;;;;;4.30;3.90;;;30.10;72.60;;;;;;5037947;28;20467;-85
2023/09/17 09:46:08;;;;;;;4.83;3.30;;;29.70;71.40;;;;;;5036945;28;20239;-82
2023/09/17 09:48:38;;;;;;;3.83;3.27;;;29.70;71.50;;;;;;5034769;28;20995;-84
2023/09/17 09:51:04;;;;;;;4.10;3.10;;;29.60;71.70;;;;;;5034697;28;20448;-82
2023/09/17 09:53:29;;;;;;;4.20;3.00;;;29.70;70.90;;;;;;5033429;28;20463;-82
2023/09/17 09:55:56;;;;;;;5.27;3.63;;;30.20;71.10;;;;;;5034009;28;20185;-81
2023/09/17 09:58:21;;;;;;;4.60;3.10;;;30.30;70.40;;;;;;5026312;28;20186;-81
2023/09/17 10:00:47;;;;;;;5.30;3.30;;;30.60;69.70;;;;;;5032927;28;20448;-81
2023/09/17 10:03:17;;;;;;;9.07;3.97;;;31.10;70.10;;;;;;5031408;28;20461;-81
2023/09/17 10:05:44;;;;;;;4.90;3.50;;;30.30;70.00;;;;;;5033040;28;20560;-82
2023/09/17 10:08:11;;;;;;;3.70;3.13;;;30.40;69.30;;;;;;5048880;28;20446;-82
2023/09/17 10:10:37;;;;;;;3.33;2.87;;;30.50;70.00;;;;;;5038118;28;20454;-82
2023/09/17 10:13:06;;;;;;;4.33;3.17;;;30.40;69.80;;;;;;5037937;28;20512;-85
2023/09/17 10:15:36;;;;;;;4.30;3.00;;;30.20;69.60;;;;;;5042973;28;20432;-87
2023/09/17 10:18:03;;;;;;;4.33;3.00;;;30.20;69.60;;;;;;5051987;28;20460;-85
2023/09/17 10:20:30;;;;;;;3.63;2.70;;;30.20;66.50;;;;;;5053006;28;20440;-84
2023/09/17 10:22:57;;;;;;;5.80;3.40;;;30.20;68.20;;;;;;5050567;28;20472;-84
2023/09/17 10:25:23;;;;;;;5.87;3.07;;;29.90;67.90;;;;;;5038319;28;20433;-87
2023/09/17 10:27:51;;;;;;;4.27;2.87;;;30.20;68.70;;;;;;5038069;28;20536;-86
2023/09/17 10:30:18;;;;;;;5.50;2.70;;;30.00;69.70;;;;;;5033788;28;20437;-87
2023/09/17 10:32:47;;;;;;;4.37;3.00;;;29.90;67.70;;;;;;5049015;28;20469;-85
2023/09/17 10:35:16;;;;;;;3.50;2.70;;;30.00;67.30;;;;;;5045466;28;20448;-82
2023/09/17 10:37:43;;;;;;;6.40;3.60;;;30.10;67.00;;;;;;5046621;28;20997;-79
2023/09/17 10:40:10;;;;;;;3.70;3.23;;;30.70;67.60;;;;;;5041710;28;20471;-80
2023/09/17 10:42:38;;;;;;;3.47;3.17;;;30.10;67.20;;;;;;5041482;28;20467;-79
2023/09/17 10:45:07;;;;;;;5.87;2.80;;;30.40;68.30;;;;;;5049128;28;20452;-82
2023/09/17 10:47:35;;;;;;;4.37;2.87;;;30.20;68.60;;;;;;5048713;28;20458;-79
2023/09/17 10:50:03;;;;;;;5.53;4.23;;;30.00;68.00;;;;;;5044696;28;20443;-80
2023/09/17 10:52:30;;;;;;;3.70;3.07;;;30.20;68.40;;;;;;5039972;28;20476;-79
2023/09/17 10:54:55;;;;;;;3.93;2.53;;;30.40;67.10;;;;;;5034527;28;20461;-80
2023/09/17 10:57:40;;;;;;;4.60;3.30;;;30.80;67.20;;;;;;5036230;28;20517;-80
2023/09/17 11:00:20;;;;;;;3.40;2.17;;;30.60;65.80;;;;;;5028207;28;20187;-79
2023/09/17 11:02:50;;;;;;;2.90;2.60;;;30.50;64.10;;;;;;5032548;28;20476;-86
2023/09/17 11:05:20;;;;;;;5.10;2.87;;;30.60;64.40;;;;;;5031078;28;20977;-83
2023/09/17 11:07:48;;;;;;;6.40;3.03;;;30.30;65.20;;;;;;5029904;28;20529;-83
2023/09/17 11:10:14;;;;;;;4.20;3.50;;;30.80;65.70;;;;;;5030212;28;20453;-80
2023/09/17 11:12:41;;;;;;;6.00;3.03;;;30.90;65.80;;;;;;5036389;28;20933;-81
2023/09/17 11:15:08;;;;;;;3.50;2.40;;;30.90;66.50;;;;;;5031411;28;20453;-78
2023/09/17 11:17:34;;;;;;;3.67;2.77;;;30.50;67.80;;;;;;5028092;28;20468;-80
2023/09/17 11:20:00;;;;;;;4.13;2.70;;;30.50;66.90;;;;;;5034041;28;20437;-81
2023/09/17 11:22:35;;;;;;;3.37;3.03;;;30.50;66.90;;;;;;5031464;28;20491;-84
2023/09/17 11:25:03;;;;;;;5.00;2.60;;;30.60;66.00;;;;;;5050434;28;20215;-83
2023/09/17 11:27:49;;;;;;;4.00;2.83;;;30.50;65.90;;;;;;5030731;28;21064;-82
2023/09/17 11:30:22;;;;;;;4.70;2.63;;;30.70;66.30;;;;;;5027899;28;20441;-80
2023/09/17 11:32:54;;;;;;;5.27;2.53;;;30.20;65.80;;;;;;5030522;28;20582;-83
2023/09/17 11:35:24;;;;;;;3.17;2.40;;;30.00;66.70;;;;;;5029982;28;20448;-83
2023/09/17 11:37:51;;;;;;;2.60;2.40;;;30.10;66.10;;;;;;5032105;28;20479;-83
2023/09/17 11:40:18;;;;;;;3.90;2.50;;;30.20;65.20;;;;;;5030596;28;20441;-83
2023/09/17 11:42:47;;;;;;;3.20;2.33;;;30.30;64.00;;;;;;5027119;28;20473;-81
2023/09/17 11:45:14;;;;;;;4.17;2.53;;;31.30;65.30;;;;;;5034084;28;20929;-80
2023/09/17 11:47:40;;;;;;;2.33;2.13;;;30.60;64.40;;;;;;5011120;28;20447;-79
2023/09/17 11:50:08;;;;;;;2.60;2.37;;;30.50;63.80;;;;;;5030115;28;20480;-80
2023/09/17 11:52:34;;;;;;;4.50;2.70;;;30.30;64.20;;;;;;5028978;28;20474;-80
2023/09/17 11:55:12;;;;;;;2.80;2.60;;;30.40;64.50;;;;;;5032668;28;20481;-81
2023/09/17 11:57:37;;;;;;;3.43;2.47;;;30.40;64.40;;;;;;5029158;28;20193;-80
2023/09/17 12:00:09;;;;;;;3.70;2.67;;;30.40;64.10;;;;;;5032030;28;20444;-80
2023/09/17 12:02:36;;;;;;;3.67;2.70;;;30.50;64.40;;;;;;5028694;28;20206;-80
2023/09/17 12:05:04;;;;;;;3.80;2.57;;;30.50;64.10;;;;;;5028651;28;21068;-80
2023/09/17 12:07:30;;;;;;;2.73;2.53;;;30.50;63.50;;;;;;5031266;28;20872;-80
2023/09/17 12:10:06;;;;;;;3.00;2.70;;;30.50;64.80;;;;;;5028797;28;20437;-80
2023/09/17 12:12:34;;;;;;;4.03;2.50;;;30.60;64.40;;;;;;5048756;28;20465;-80
2023/09/17 12:15:01;;;;;;;3.60;2.70;;;31.20;63.90;;;;;;5032192;28;20530;-80
2023/09/17 12:17:28;;;;;;;3.93;2.70;;;30.70;63.50;;;;;;5032153;28;20444;-80
2023/09/17 12:20:09;;;;;;;2.23;2.00;;;30.50;63.40;;;;;;5031330;28;20527;-80
2023/09/17 12:22:35;;;;;;;3.10;2.50;;;30.50;62.70;;;;;;5034224;28;20535;-80
2023/09/17 12:25:13;;;;;;;3.83;2.90;;;31.50;64.30;;;;;;5032675;28;20537;-80
2023/09/17 12:27:46;;;;;;;4.20;2.50;;;30.40;64.00;;;;;;5032814;28;20193;-80
2023/09/17 12:30:12;;;;;;;4.30;2.57;;;30.40;62.90;;;;;;5031540;28;20443;-80
2023/09/17 12:32:38;;;;;;;4.10;2.40;;;30.70;63.80;;;;;;5034020;28;20486;-80
2023/09/17 12:35:05;;;;;;;5.60;2.70;;;30.70;63.40;;;;;;5034240;28;20444;-80
2023/09/17 12:37:31;;;;;;;3.23;2.40;;;30.30;62.30;;;;;;5034317;28;20968;-80
2023/09/17 12:39:56;;;;;;;4.30;2.47;;;30.20;62.60;;;;;;5033443;28;20444;-80
2023/09/17 12:42:22;;;;;;;6.10;2.70;;;30.40;63.70;;;;;;5033166;28;20723;-80
2023/09/17 12:44:49;;;;;;;3.07;2.30;;;30.40;63.20;;;;;;5030961;28;20273;-80